Aérodrome :
LOGIN :

S'inscrire | Disclaimer

   EN    FR    IT 

 










Légende :    VFR   VFR Marginal   IFR   IFR Intensif   IFR Très Intensif
Visi : 
Plafond : 
>= 8 km
>= 3000ft
5 à 8 km
1000 à 3000 ft
1500m à 5 km
500 à 1000 ft
800 à 1500m
200 à 500 ft
< 800m
< 200 ft
Symboles :   Orages  Brouillard  Fortes neiges  Fortes précipitations  Vent > 20 kt
SIGMETs :   Divers  Orages  Givrage  Turbulence  Onde Orograph.  Cendres Volcan.







- Altitude de l'aérodrome : 1470 ft
- Code IATA : KLU


LOWK - Klagenfurt

DERNIER METAR :
  • 211050Z VRB03KT 9999 FEW025 SCT070 BKN100 19/11 Q1017 NOSIG

METARs EXPIRÉS :
  • 211020Z 15003KT 080V220 9999 FEW025 SCT070 BKN100 19/12 Q1018 NOSIG
  • 210950Z VRB03KT 9999 FEW025 SCT070 BKN100 19/12 Q1018 NOSIG
  • 210920Z VRB02KT 9999 FEW025 SCT070 18/11 Q1018 NOSIG
  • 210850Z VRB02KT 9999 FEW025 SCT070 18/11 Q1018 NOSIG
  • 210820Z VRB02KT 9999 FEW025 SCT070 18/11 Q1018 NOSIG

TAF TAF LOWK
Valide du 21 à 06h jusqu'au 22 à 06h UTC


210515Z 2106/2206 VRB02KT 9999 FEW050 SCT100 TX20/2114Z TN11/2204Z
TEMPO 2112/2119 12007KT SHRA SCT050 FEW050CB
PROB30
TEMPO 2113/2119 VRB10G20KT 7000 TSRA SCT050 SCT050CB BKN100
TEMPO 2202/2206 1200 BCFG SCT004
Pas de NOTAMs connus pour ce terrain.



MET'MAP, la Météo Aéronautique d'un coup d'oeil ! - Copyright ORBIFLY Décembre 2007 - Disclaimer

ORBIFLY MET'MAP TEAM :

Programmation & Développement : Alexandra Zaïnal
Conception & Développement : Baudouin d'Aumeries
Co-Programmation & Développement : Marc-Olivier Méhu
Soutien technique & logistique : Manuel Goepfert

Contact : metmap@orbifly.com




SOURCES & CREDITS :

   NOAA